sensor_id;sensor_type;location;lat;lon;timestamp;P1;durP1;ratioP1;P2;durP2;ratioP2
61709;SDS011;47633;51.494;5.386;2023-03-04T00:02:08;6.05;;;1.98;;
61709;SDS011;47633;51.494;5.386;2023-03-04T00:04:34;7.85;;;2.67;;
61709;SDS011;47633;51.494;5.386;2023-03-04T00:06:59;7.68;;;1.95;;
61709;SDS011;47633;51.494;5.386;2023-03-04T00:09:25;7.30;;;2.10;;
61709;SDS011;47633;51.494;5.386;2023-03-04T00:11:50;8.07;;;2.17;;
61709;SDS011;47633;51.494;5.386;2023-03-04T00:14:15;5.40;;;1.98;;
61709;SDS011;47633;51.494;5.386;2023-03-04T00:16:40;7.13;;;2.10;;
61709;SDS011;47633;51.494;5.386;2023-03-04T00:19:06;7.57;;;1.98;;
61709;SDS011;47633;51.494;5.386;2023-03-04T00:21:31;7.63;;;1.83;;
61709;SDS011;47633;51.494;5.386;2023-03-04T00:23:56;7.70;;;1.90;;
61709;SDS011;47633;51.494;5.386;2023-03-04T00:26:22;6.57;;;1.70;;
61709;SDS011;47633;51.494;5.386;2023-03-04T00:28:47;6.15;;;2.10;;
61709;SDS011;47633;51.494;5.386;2023-03-04T00:31:13;6.85;;;1.80;;
61709;SDS011;47633;51.494;5.386;2023-03-04T00:33:38;8.18;;;2.13;;
61709;SDS011;47633;51.494;5.386;2023-03-04T00:36:04;6.38;;;1.92;;
61709;SDS011;47633;51.494;5.386;2023-03-04T00:38:30;9.48;;;1.85;;
61709;SDS011;47633;51.494;5.386;2023-03-04T00:40:55;6.88;;;2.03;;
61709;SDS011;47633;51.494;5.386;2023-03-04T00:43:20;7.28;;;2.13;;
61709;SDS011;47633;51.494;5.386;2023-03-04T00:45:46;7.22;;;2.10;;
61709;SDS011;47633;51.494;5.386;2023-03-04T00:48:11;8.60;;;2.17;;
61709;SDS011;47633;51.494;5.386;2023-03-04T00:50:37;5.38;;;1.92;;
61709;SDS011;47633;51.494;5.386;2023-03-04T00:53:03;4.75;;;2.00;;
61709;SDS011;47633;51.494;5.386;2023-03-04T00:55:28;6.03;;;1.83;;
61709;SDS011;47633;51.494;5.386;2023-03-04T00:57:54;5.68;;;1.70;;
61709;SDS011;47633;51.494;5.386;2023-03-04T01:00:19;8.73;;;1.90;;
61709;SDS011;47633;51.494;5.386;2023-03-04T01:02:45;8.93;;;2.08;;
61709;SDS011;47633;51.494;5.386;2023-03-04T01:05:10;6.85;;;2.28;;
61709;SDS011;47633;51.494;5.386;2023-03-04T01:07:36;7.68;;;2.05;;
61709;SDS011;47633;51.494;5.386;2023-03-04T01:10:01;5.05;;;1.80;;
61709;SDS011;47633;51.494;5.386;2023-03-04T01:12:28;6.57;;;2.35;;
61709;SDS011;47633;51.494;5.386;2023-03-04T01:14:53;6.15;;;2.35;;
61709;SDS011;47633;51.494;5.386;2023-03-04T01:17:18;10.02;;;2.35;;
61709;SDS011;47633;51.494;5.386;2023-03-04T01:19:44;6.40;;;2.00;;
61709;SDS011;47633;51.494;5.386;2023-03-04T01:22:09;7.30;;;2.15;;
61709;SDS011;47633;51.494;5.386;2023-03-04T01:24:36;6.20;;;1.90;;
61709;SDS011;47633;51.494;5.386;2023-03-04T01:27:01;6.35;;;1.48;;
61709;SDS011;47633;51.494;5.386;2023-03-04T01:29:27;7.82;;;2.10;;
61709;SDS011;47633;51.494;5.386;2023-03-04T01:31:52;7.07;;;1.90;;
61709;SDS011;47633;51.494;5.386;2023-03-04T01:34:17;6.10;;;2.25;;
61709;SDS011;47633;51.494;5.386;2023-03-04T01:36:43;8.20;;;2.08;;
61709;SDS011;47633;51.494;5.386;2023-03-04T01:39:08;5.25;;;1.75;;
61709;SDS011;47633;51.494;5.386;2023-03-04T01:41:33;7.85;;;2.30;;
61709;SDS011;47633;51.494;5.386;2023-03-04T01:43:59;6.95;;;1.88;;
61709;SDS011;47633;51.494;5.386;2023-03-04T01:46:26;6.22;;;2.13;;
61709;SDS011;47633;51.494;5.386;2023-03-04T01:48:52;7.50;;;1.90;;
61709;SDS011;47633;51.494;5.386;2023-03-04T01:51:18;7.53;;;1.92;;
61709;SDS011;47633;51.494;5.386;2023-03-04T01:53:45;7.00;;;1.90;;
61709;SDS011;47633;51.494;5.386;2023-03-04T01:56:24;8.55;;;1.67;;
61709;SDS011;47633;51.494;5.386;2023-03-04T02:01:34;8.35;;;1.77;;
61709;SDS011;47633;51.494;5.386;2023-03-04T02:04:00;7.95;;;2.40;;
61709;SDS011;47633;51.494;5.386;2023-03-04T02:06:26;6.53;;;1.80;;
61709;SDS011;47633;51.494;5.386;2023-03-04T02:08:51;6.80;;;1.75;;
61709;SDS011;47633;51.494;5.386;2023-03-04T02:11:16;5.80;;;1.60;;
61709;SDS011;47633;51.494;5.386;2023-03-04T02:13:42;8.95;;;1.98;;
61709;SDS011;47633;51.494;5.386;2023-03-04T02:16:07;4.90;;;1.55;;
61709;SDS011;47633;51.494;5.386;2023-03-04T02:18:32;4.70;;;1.50;;
61709;SDS011;47633;51.494;5.386;2023-03-04T02:23:37;7.60;;;1.90;;
61709;SDS011;47633;51.494;5.386;2023-03-04T02:28:36;7.97;;;1.92;;
61709;SDS011;47633;51.494;5.386;2023-03-04T02:31:02;5.43;;;1.67;;
61709;SDS011;47633;51.494;5.386;2023-03-04T02:33:27;6.70;;;1.73;;
61709;SDS011;47633;51.494;5.386;2023-03-04T02:35:53;5.75;;;1.75;;
61709;SDS011;47633;51.494;5.386;2023-03-04T02:38:18;7.18;;;2.00;;
61709;SDS011;47633;51.494;5.386;2023-03-04T02:40:44;5.40;;;1.40;;
61709;SDS011;47633;51.494;5.386;2023-03-04T02:43:12;7.43;;;1.73;;
61709;SDS011;47633;51.494;5.386;2023-03-04T02:45:42;4.47;;;1.42;;
61709;SDS011;47633;51.494;5.386;2023-03-04T02:48:15;4.93;;;1.52;;
61709;SDS011;47633;51.494;5.386;2023-03-04T02:50:44;4.68;;;1.52;;
61709;SDS011;47633;51.494;5.386;2023-03-04T02:53:12;5.50;;;1.60;;
61709;SDS011;47633;51.494;5.386;2023-03-04T02:55:39;6.78;;;1.60;;
61709;SDS011;47633;51.494;5.386;2023-03-04T02:58:06;5.90;;;1.73;;
61709;SDS011;47633;51.494;5.386;2023-03-04T03:00:31;7.25;;;1.90;;
61709;SDS011;47633;51.494;5.386;2023-03-04T03:02:57;6.50;;;1.58;;
61709;SDS011;47633;51.494;5.386;2023-03-04T03:05:23;7.20;;;1.60;;
61709;SDS011;47633;51.494;5.386;2023-03-04T03:07:53;7.03;;;1.50;;
61709;SDS011;47633;51.494;5.386;2023-03-04T03:10:19;6.63;;;2.20;;
61709;SDS011;47633;51.494;5.386;2023-03-04T03:12:44;7.57;;;1.40;;
61709;SDS011;47633;51.494;5.386;2023-03-04T03:15:10;5.05;;;1.60;;
61709;SDS011;47633;51.494;5.386;2023-03-04T03:17:35;6.20;;;1.45;;
61709;SDS011;47633;51.494;5.386;2023-03-04T03:20:01;6.38;;;1.48;;
61709;SDS011;47633;51.494;5.386;2023-03-04T03:22:26;5.57;;;1.50;;
61709;SDS011;47633;51.494;5.386;2023-03-04T03:24:51;6.97;;;1.58;;
61709;SDS011;47633;51.494;5.386;2023-03-04T03:27:16;5.07;;;1.60;;
61709;SDS011;47633;51.494;5.386;2023-03-04T03:29:42;6.35;;;1.45;;
61709;SDS011;47633;51.494;5.386;2023-03-04T03:32:07;6.45;;;1.70;;
61709;SDS011;47633;51.494;5.386;2023-03-04T03:34:33;6.07;;;1.73;;
61709;SDS011;47633;51.494;5.386;2023-03-04T03:36:58;6.30;;;1.40;;
61709;SDS011;47633;51.494;5.386;2023-03-04T03:39:23;5.72;;;1.58;;
61709;SDS011;47633;51.494;5.386;2023-03-04T03:41:49;4.85;;;1.50;;
61709;SDS011;47633;51.494;5.386;2023-03-04T03:44:14;6.38;;;1.77;;
61709;SDS011;47633;51.494;5.386;2023-03-04T03:46:39;5.40;;;1.58;;
61709;SDS011;47633;51.494;5.386;2023-03-04T03:49:05;4.03;;;1.30;;
61709;SDS011;47633;51.494;5.386;2023-03-04T03:51:30;6.05;;;1.48;;
61709;SDS011;47633;51.494;5.386;2023-03-04T03:53:55;5.63;;;1.42;;
61709;SDS011;47633;51.494;5.386;2023-03-04T03:56:20;8.00;;;1.42;;
61709;SDS011;47633;51.494;5.386;2023-03-04T03:58:46;5.97;;;1.63;;
61709;SDS011;47633;51.494;5.386;2023-03-04T04:01:11;6.07;;;1.45;;
61709;SDS011;47633;51.494;5.386;2023-03-04T04:03:36;6.30;;;1.73;;
61709;SDS011;47633;51.494;5.386;2023-03-04T04:06:02;6.85;;;1.42;;
61709;SDS011;47633;51.494;5.386;2023-03-04T04:08:27;5.00;;;1.38;;
61709;SDS011;47633;51.494;5.386;2023-03-04T04:10:52;6.18;;;1.40;;
61709;SDS011;47633;51.494;5.386;2023-03-04T04:13:18;7.15;;;1.63;;
61709;SDS011;47633;51.494;5.386;2023-03-04T04:15:43;5.00;;;1.38;;
61709;SDS011;47633;51.494;5.386;2023-03-04T04:18:09;5.88;;;1.40;;
61709;SDS011;47633;51.494;5.386;2023-03-04T04:20:34;5.28;;;1.63;;
61709;SDS011;47633;51.494;5.386;2023-03-04T04:23:00;5.70;;;1.55;;
61709;SDS011;47633;51.494;5.386;2023-03-04T04:25:26;7.68;;;1.40;;
61709;SDS011;47633;51.494;5.386;2023-03-04T04:27:51;5.28;;;1.73;;
61709;SDS011;47633;51.494;5.386;2023-03-04T04:30:16;8.32;;;1.65;;
61709;SDS011;47633;51.494;5.386;2023-03-04T04:32:42;4.88;;;1.23;;
61709;SDS011;47633;51.494;5.386;2023-03-04T04:35:07;4.78;;;1.70;;
61709;SDS011;47633;51.494;5.386;2023-03-04T04:37:32;4.35;;;1.05;;
61709;SDS011;47633;51.494;5.386;2023-03-04T04:39:57;5.32;;;1.40;;
61709;SDS011;47633;51.494;5.386;2023-03-04T04:42:23;6.05;;;1.63;;
61709;SDS011;47633;51.494;5.386;2023-03-04T04:44:48;5.95;;;1.50;;
61709;SDS011;47633;51.494;5.386;2023-03-04T04:47:13;5.38;;;1.20;;
61709;SDS011;47633;51.494;5.386;2023-03-04T04:49:39;3.78;;;1.10;;
61709;SDS011;47633;51.494;5.386;2023-03-04T04:52:04;4.60;;;1.45;;
61709;SDS011;47633;51.494;5.386;2023-03-04T04:54:29;4.90;;;1.33;;
61709;SDS011;47633;51.494;5.386;2023-03-04T04:56:57;5.10;;;1.25;;
61709;SDS011;47633;51.494;5.386;2023-03-04T04:59:22;6.10;;;1.42;;
61709;SDS011;47633;51.494;5.386;2023-03-04T05:01:48;5.90;;;1.60;;
61709;SDS011;47633;51.494;5.386;2023-03-04T05:04:13;3.92;;;1.00;;
61709;SDS011;47633;51.494;5.386;2023-03-04T05:06:38;4.05;;;1.00;;
61709;SDS011;47633;51.494;5.386;2023-03-04T05:09:04;6.07;;;1.10;;
61709;SDS011;47633;51.494;5.386;2023-03-04T05:11:30;5.63;;;1.35;;
61709;SDS011;47633;51.494;5.386;2023-03-04T05:13:55;5.22;;;1.38;;
61709;SDS011;47633;51.494;5.386;2023-03-04T05:16:21;4.18;;;1.25;;
61709;SDS011;47633;51.494;5.386;2023-03-04T05:18:46;7.28;;;1.40;;
61709;SDS011;47633;51.494;5.386;2023-03-04T05:21:12;5.80;;;1.38;;
61709;SDS011;47633;51.494;5.386;2023-03-04T05:23:38;5.65;;;1.25;;
61709;SDS011;47633;51.494;5.386;2023-03-04T05:26:05;5.03;;;1.20;;
61709;SDS011;47633;51.494;5.386;2023-03-04T05:28:32;5.25;;;1.63;;
61709;SDS011;47633;51.494;5.386;2023-03-04T05:30:58;3.70;;;1.17;;
61709;SDS011;47633;51.494;5.386;2023-03-04T05:33:24;6.82;;;1.40;;
61709;SDS011;47633;51.494;5.386;2023-03-04T05:35:49;4.28;;;1.10;;
61709;SDS011;47633;51.494;5.386;2023-03-04T05:38:16;5.43;;;1.33;;
61709;SDS011;47633;51.494;5.386;2023-03-04T05:40:42;6.07;;;1.40;;
61709;SDS011;47633;51.494;5.386;2023-03-04T05:43:08;3.67;;;1.08;;
61709;SDS011;47633;51.494;5.386;2023-03-04T05:45:35;5.88;;;1.50;;
61709;SDS011;47633;51.494;5.386;2023-03-04T05:48:00;4.22;;;1.27;;
61709;SDS011;47633;51.494;5.386;2023-03-04T05:50:27;3.95;;;1.35;;
61709;SDS011;47633;51.494;5.386;2023-03-04T05:52:53;5.53;;;1.30;;
61709;SDS011;47633;51.494;5.386;2023-03-04T05:55:18;6.68;;;1.40;;
61709;SDS011;47633;51.494;5.386;2023-03-04T05:57:43;5.22;;;1.25;;
61709;SDS011;47633;51.494;5.386;2023-03-04T06:00:09;5.20;;;1.50;;
61709;SDS011;47633;51.494;5.386;2023-03-04T06:02:37;3.45;;;1.20;;
61709;SDS011;47633;51.494;5.386;2023-03-04T06:05:03;5.40;;;1.13;;
61709;SDS011;47633;51.494;5.386;2023-03-04T06:07:29;3.22;;;0.90;;
61709;SDS011;47633;51.494;5.386;2023-03-04T06:09:54;3.90;;;1.20;;
61709;SDS011;47633;51.494;5.386;2023-03-04T06:12:20;4.70;;;1.10;;
61709;SDS011;47633;51.494;5.386;2023-03-04T06:14:45;5.00;;;1.15;;
61709;SDS011;47633;51.494;5.386;2023-03-04T06:17:11;5.05;;;1.30;;
61709;SDS011;47633;51.494;5.386;2023-03-04T06:19:36;5.65;;;1.23;;
61709;SDS011;47633;51.494;5.386;2023-03-04T06:22:06;4.63;;;1.27;;
61709;SDS011;47633;51.494;5.386;2023-03-04T06:24:31;4.18;;;1.08;;
61709;SDS011;47633;51.494;5.386;2023-03-04T06:26:57;6.90;;;1.33;;
61709;SDS011;47633;51.494;5.386;2023-03-04T06:29:22;5.07;;;1.23;;
61709;SDS011;47633;51.494;5.386;2023-03-04T06:31:47;5.63;;;1.10;;
61709;SDS011;47633;51.494;5.386;2023-03-04T06:34:13;3.90;;;0.93;;
61709;SDS011;47633;51.494;5.386;2023-03-04T06:36:38;4.97;;;1.15;;
61709;SDS011;47633;51.494;5.386;2023-03-04T06:39:04;3.67;;;0.90;;
61709;SDS011;47633;51.494;5.386;2023-03-04T06:41:30;4.60;;;1.08;;
61709;SDS011;47633;51.494;5.386;2023-03-04T06:43:55;3.88;;;1.33;;
61709;SDS011;47633;51.494;5.386;2023-03-04T06:46:21;7.00;;;1.00;;
61709;SDS011;47633;51.494;5.386;2023-03-04T06:48:47;5.50;;;1.17;;
61709;SDS011;47633;51.494;5.386;2023-03-04T06:51:12;3.10;;;0.88;;
61709;SDS011;47633;51.494;5.386;2023-03-04T06:53:38;6.18;;;1.30;;
61709;SDS011;47633;51.494;5.386;2023-03-04T06:56:04;3.85;;;1.10;;
61709;SDS011;47633;51.494;5.386;2023-03-04T06:58:31;4.15;;;1.23;;
61709;SDS011;47633;51.494;5.386;2023-03-04T07:00:56;4.53;;;1.15;;
61709;SDS011;47633;51.494;5.386;2023-03-04T07:03:22;6.70;;;1.00;;
61709;SDS011;47633;51.494;5.386;2023-03-04T07:05:47;4.25;;;0.90;;
61709;SDS011;47633;51.494;5.386;2023-03-04T07:08:13;3.85;;;0.77;;
61709;SDS011;47633;51.494;5.386;2023-03-04T07:10:38;5.40;;;0.90;;
61709;SDS011;47633;51.494;5.386;2023-03-04T07:13:04;3.20;;;0.98;;
61709;SDS011;47633;51.494;5.386;2023-03-04T07:15:29;4.43;;;0.95;;
61709;SDS011;47633;51.494;5.386;2023-03-04T07:17:54;3.38;;;1.08;;
61709;SDS011;47633;51.494;5.386;2023-03-04T07:20:20;3.40;;;0.80;;
61709;SDS011;47633;51.494;5.386;2023-03-04T07:22:45;5.53;;;1.10;;
61709;SDS011;47633;51.494;5.386;2023-03-04T07:25:10;5.30;;;1.10;;
61709;SDS011;47633;51.494;5.386;2023-03-04T07:27:36;5.10;;;1.08;;
61709;SDS011;47633;51.494;5.386;2023-03-04T07:30:03;3.80;;;1.05;;
61709;SDS011;47633;51.494;5.386;2023-03-04T07:32:29;2.53;;;0.70;;
61709;SDS011;47633;51.494;5.386;2023-03-04T07:34:55;3.72;;;0.82;;
61709;SDS011;47633;51.494;5.386;2023-03-04T07:37:20;3.83;;;0.85;;
61709;SDS011;47633;51.494;5.386;2023-03-04T07:39:45;3.40;;;0.95;;
61709;SDS011;47633;51.494;5.386;2023-03-04T07:42:11;5.32;;;1.23;;
61709;SDS011;47633;51.494;5.386;2023-03-04T07:44:36;5.13;;;1.15;;
61709;SDS011;47633;51.494;5.386;2023-03-04T07:47:01;6.60;;;1.38;;
61709;SDS011;47633;51.494;5.386;2023-03-04T07:49:27;5.57;;;1.05;;
61709;SDS011;47633;51.494;5.386;2023-03-04T07:51:52;6.68;;;1.20;;
61709;SDS011;47633;51.494;5.386;2023-03-04T07:54:17;5.25;;;1.35;;
61709;SDS011;47633;51.494;5.386;2023-03-04T07:56:44;4.70;;;1.13;;
61709;SDS011;47633;51.494;5.386;2023-03-04T07:59:09;3.75;;;0.90;;
61709;SDS011;47633;51.494;5.386;2023-03-04T08:01:35;2.30;;;0.80;;
61709;SDS011;47633;51.494;5.386;2023-03-04T08:04:02;4.95;;;0.90;;
61709;SDS011;47633;51.494;5.386;2023-03-04T08:06:28;6.40;;;0.90;;
61709;SDS011;47633;51.494;5.386;2023-03-04T08:08:58;4.82;;;1.00;;
61709;SDS011;47633;51.494;5.386;2023-03-04T08:11:26;3.90;;;1.20;;
61709;SDS011;47633;51.494;5.386;2023-03-04T08:13:53;6.70;;;1.00;;
61709;SDS011;47633;51.494;5.386;2023-03-04T08:16:19;4.38;;;0.82;;
61709;SDS011;47633;51.494;5.386;2023-03-04T08:18:47;5.85;;;1.10;;
61709;SDS011;47633;51.494;5.386;2023-03-04T08:21:16;4.82;;;1.38;;
61709;SDS011;47633;51.494;5.386;2023-03-04T08:23:43;4.28;;;1.02;;
61709;SDS011;47633;51.494;5.386;2023-03-04T08:26:14;5.80;;;1.00;;
61709;SDS011;47633;51.494;5.386;2023-03-04T08:28:41;2.55;;;0.93;;
61709;SDS011;47633;51.494;5.386;2023-03-04T08:31:07;4.97;;;1.10;;
61709;SDS011;47633;51.494;5.386;2023-03-04T08:33:32;5.70;;;1.10;;
61709;SDS011;47633;51.494;5.386;2023-03-04T08:35:58;4.25;;;1.00;;
61709;SDS011;47633;51.494;5.386;2023-03-04T08:38:24;6.00;;;0.90;;
61709;SDS011;47633;51.494;5.386;2023-03-04T08:40:53;6.13;;;1.00;;
61709;SDS011;47633;51.494;5.386;2023-03-04T08:43:19;2.83;;;0.70;;
61709;SDS011;47633;51.494;5.386;2023-03-04T08:45:45;5.05;;;1.20;;
61709;SDS011;47633;51.494;5.386;2023-03-04T08:48:11;4.72;;;1.30;;
61709;SDS011;47633;51.494;5.386;2023-03-04T08:50:36;4.97;;;0.80;;
61709;SDS011;47633;51.494;5.386;2023-03-04T08:53:01;5.22;;;1.00;;
61709;SDS011;47633;51.494;5.386;2023-03-04T08:55:27;5.53;;;1.10;;
61709;SDS011;47633;51.494;5.386;2023-03-04T08:57:52;4.57;;;0.95;;
61709;SDS011;47633;51.494;5.386;2023-03-04T09:00:17;7.78;;;1.10;;
61709;SDS011;47633;51.494;5.386;2023-03-04T09:02:43;3.88;;;0.80;;
61709;SDS011;47633;51.494;5.386;2023-03-04T09:05:08;3.53;;;0.90;;
61709;SDS011;47633;51.494;5.386;2023-03-04T09:07:34;3.58;;;0.85;;
61709;SDS011;47633;51.494;5.386;2023-03-04T09:09:59;3.75;;;0.80;;
61709;SDS011;47633;51.494;5.386;2023-03-04T09:12:24;3.80;;;0.98;;
61709;SDS011;47633;51.494;5.386;2023-03-04T09:14:50;3.53;;;0.90;;
61709;SDS011;47633;51.494;5.386;2023-03-04T09:17:15;6.00;;;1.13;;
61709;SDS011;47633;51.494;5.386;2023-03-04T09:19:40;4.55;;;1.00;;
61709;SDS011;47633;51.494;5.386;2023-03-04T09:22:06;6.03;;;1.50;;
61709;SDS011;47633;51.494;5.386;2023-03-04T09:24:31;4.80;;;1.08;;
61709;SDS011;47633;51.494;5.386;2023-03-04T09:26:56;4.47;;;1.00;;
61709;SDS011;47633;51.494;5.386;2023-03-04T09:29:21;3.58;;;0.90;;
61709;SDS011;47633;51.494;5.386;2023-03-04T09:31:47;4.32;;;1.00;;
61709;SDS011;47633;51.494;5.386;2023-03-04T09:34:12;5.20;;;0.95;;
61709;SDS011;47633;51.494;5.386;2023-03-04T09:36:37;5.55;;;0.95;;
61709;SDS011;47633;51.494;5.386;2023-03-04T09:39:03;3.42;;;1.33;;
61709;SDS011;47633;51.494;5.386;2023-03-04T09:41:33;4.43;;;1.13;;
61709;SDS011;47633;51.494;5.386;2023-03-04T09:44:09;5.43;;;1.08;;
61709;SDS011;47633;51.494;5.386;2023-03-04T09:46:40;6.00;;;1.10;;
61709;SDS011;47633;51.494;5.386;2023-03-04T09:49:09;4.10;;;1.00;;
61709;SDS011;47633;51.494;5.386;2023-03-04T09:51:42;3.63;;;1.02;;
61709;SDS011;47633;51.494;5.386;2023-03-04T09:54:21;5.55;;;1.20;;
61709;SDS011;47633;51.494;5.386;2023-03-04T09:56:59;6.35;;;3.13;;
61709;SDS011;47633;51.494;5.386;2023-03-04T09:59:40;2.53;;;0.80;;
61709;SDS011;47633;51.494;5.386;2023-03-04T10:02:21;3.30;;;0.90;;
61709;SDS011;47633;51.494;5.386;2023-03-04T10:04:58;3.45;;;0.73;;
61709;SDS011;47633;51.494;5.386;2023-03-04T10:07:26;3.05;;;0.82;;
61709;SDS011;47633;51.494;5.386;2023-03-04T10:10:09;2.38;;;0.85;;
61709;SDS011;47633;51.494;5.386;2023-03-04T10:12:41;3.97;;;0.80;;
61709;SDS011;47633;51.494;5.386;2023-03-04T10:15:20;2.58;;;0.77;;
61709;SDS011;47633;51.494;5.386;2023-03-04T10:17:52;4.97;;;0.80;;
61709;SDS011;47633;51.494;5.386;2023-03-04T10:20:30;3.53;;;0.77;;
61709;SDS011;47633;51.494;5.386;2023-03-04T10:23:09;3.00;;;0.70;;
61709;SDS011;47633;51.494;5.386;2023-03-04T10:25:40;3.67;;;0.80;;
61709;SDS011;47633;51.494;5.386;2023-03-04T10:28:11;6.30;;;1.10;;
61709;SDS011;47633;51.494;5.386;2023-03-04T10:30:56;4.72;;;1.08;;
61709;SDS011;47633;51.494;5.386;2023-03-04T10:33:27;3.75;;;1.00;;
61709;SDS011;47633;51.494;5.386;2023-03-04T10:38:52;4.15;;;0.88;;
61709;SDS011;47633;51.494;5.386;2023-03-04T10:41:22;4.68;;;0.90;;
61709;SDS011;47633;51.494;5.386;2023-03-04T10:46:40;3.28;;;1.00;;
61709;SDS011;47633;51.494;5.386;2023-03-04T10:49:08;3.95;;;0.80;;
61709;SDS011;47633;51.494;5.386;2023-03-04T10:51:40;2.60;;;0.80;;
61709;SDS011;47633;51.494;5.386;2023-03-04T10:56:59;2.95;;;0.73;;
61709;SDS011;47633;51.494;5.386;2023-03-04T11:04:39;3.72;;;0.77;;
61709;SDS011;47633;51.494;5.386;2023-03-04T11:07:08;2.88;;;0.80;;
61709;SDS011;47633;51.494;5.386;2023-03-04T11:09:35;4.13;;;1.08;;
61709;SDS011;47633;51.494;5.386;2023-03-04T11:12:01;4.43;;;0.82;;
61709;SDS011;47633;51.494;5.386;2023-03-04T11:14:30;3.38;;;0.80;;
61709;SDS011;47633;51.494;5.386;2023-03-04T11:17:20;3.63;;;0.80;;
61709;SDS011;47633;51.494;5.386;2023-03-04T11:22:32;2.97;;;0.85;;
61709;SDS011;47633;51.494;5.386;2023-03-04T11:25:00;3.70;;;0.70;;
61709;SDS011;47633;51.494;5.386;2023-03-04T11:29:56;4.37;;;0.80;;
61709;SDS011;47633;51.494;5.386;2023-03-04T11:32:27;4.68;;;1.13;;
61709;SDS011;47633;51.494;5.386;2023-03-04T11:35:01;2.90;;;1.00;;
61709;SDS011;47633;51.494;5.386;2023-03-04T11:37:43;4.78;;;1.25;;
61709;SDS011;47633;51.494;5.386;2023-03-04T11:40:30;4.53;;;1.50;;
61709;SDS011;47633;51.494;5.386;2023-03-04T11:43:15;4.70;;;1.88;;
61709;SDS011;47633;51.494;5.386;2023-03-04T11:45:57;7.57;;;2.10;;
61709;SDS011;47633;51.494;5.386;2023-03-04T11:54:04;5.10;;;2.60;;
61709;SDS011;47633;51.494;5.386;2023-03-04T11:56:43;6.28;;;2.95;;
61709;SDS011;47633;51.494;5.386;2023-03-04T12:07:34;8.77;;;3.22;;
61709;SDS011;47633;51.494;5.386;2023-03-04T12:13:11;5.95;;;2.88;;
61709;SDS011;47633;51.494;5.386;2023-03-04T12:16:01;7.38;;;2.90;;
61709;SDS011;47633;51.494;5.386;2023-03-04T12:31:44;4.80;;;2.22;;
61709;SDS011;47633;51.494;5.386;2023-03-04T12:34:32;5.55;;;2.25;;
61709;SDS011;47633;51.494;5.386;2023-03-04T12:44:55;3.65;;;1.70;;
61709;SDS011;47633;51.494;5.386;2023-03-04T12:51:11;4.28;;;1.75;;
61709;SDS011;47633;51.494;5.386;2023-03-04T12:54:17;6.40;;;1.40;;
61709;SDS011;47633;51.494;5.386;2023-03-04T12:57:01;4.13;;;1.60;;
61709;SDS011;47633;51.494;5.386;2023-03-04T13:10:41;3.58;;;1.20;;
61709;SDS011;47633;51.494;5.386;2023-03-04T13:16:26;5.45;;;1.50;;
61709;SDS011;47633;51.494;5.386;2023-03-04T13:19:39;3.90;;;1.33;;
61709;SDS011;47633;51.494;5.386;2023-03-04T13:24:53;5.03;;;1.05;;
61709;SDS011;47633;51.494;5.386;2023-03-04T13:32:56;3.33;;;1.33;;
61709;SDS011;47633;51.494;5.386;2023-03-04T13:43:48;2.25;;;0.90;;
61709;SDS011;47633;51.494;5.386;2023-03-04T14:04:34;4.00;;;1.60;;
61709;SDS011;47633;51.494;5.386;2023-03-04T14:07:02;3.83;;;1.30;;
61709;SDS011;47633;51.494;5.386;2023-03-04T14:09:54;3.53;;;1.50;;
61709;SDS011;47633;51.494;5.386;2023-03-04T14:12:45;5.40;;;1.42;;
61709;SDS011;47633;51.494;5.386;2023-03-04T14:17:38;3.20;;;1.43;;
61709;SDS011;47633;51.494;5.386;2023-03-04T14:20:25;3.65;;;1.50;;
61709;SDS011;47633;51.494;5.386;2023-03-04T14:22:52;2.95;;;1.40;;
61709;SDS011;47633;51.494;5.386;2023-03-04T14:27:46;6.25;;;2.72;;
61709;SDS011;47633;51.494;5.386;2023-03-04T14:30:19;4.70;;;2.13;;
61709;SDS011;47633;51.494;5.386;2023-03-04T14:32:46;6.57;;;2.10;;
61709;SDS011;47633;51.494;5.386;2023-03-04T14:35:21;6.30;;;2.65;;
61709;SDS011;47633;51.494;5.386;2023-03-04T14:40:25;4.93;;;2.00;;
61709;SDS011;47633;51.494;5.386;2023-03-04T14:42:58;5.72;;;1.95;;
61709;SDS011;47633;51.494;5.386;2023-03-04T14:45:28;5.05;;;2.05;;
61709;SDS011;47633;51.494;5.386;2023-03-04T14:47:55;6.57;;;1.98;;
61709;SDS011;47633;51.494;5.386;2023-03-04T14:50:25;4.13;;;1.75;;
61709;SDS011;47633;51.494;5.386;2023-03-04T14:53:04;4.25;;;1.80;;
61709;SDS011;47633;51.494;5.386;2023-03-04T14:55:38;3.45;;;1.73;;
61709;SDS011;47633;51.494;5.386;2023-03-04T14:58:08;5.07;;;1.63;;
61709;SDS011;47633;51.494;5.386;2023-03-04T15:00:43;4.15;;;1.65;;
61709;SDS011;47633;51.494;5.386;2023-03-04T15:05:44;3.67;;;1.63;;
61709;SDS011;47633;51.494;5.386;2023-03-04T15:08:23;3.20;;;1.70;;
61709;SDS011;47633;51.494;5.386;2023-03-04T15:10:52;4.03;;;1.23;;
61709;SDS011;47633;51.494;5.386;2023-03-04T15:13:37;5.90;;;1.60;;
61709;SDS011;47633;51.494;5.386;2023-03-04T15:16:04;3.17;;;1.27;;
61709;SDS011;47633;51.494;5.386;2023-03-04T15:18:29;3.38;;;1.50;;
61709;SDS011;47633;51.494;5.386;2023-03-04T15:20:59;2.92;;;1.30;;
61709;SDS011;47633;51.494;5.386;2023-03-04T15:23:25;4.03;;;1.50;;
61709;SDS011;47633;51.494;5.386;2023-03-04T15:25:53;3.53;;;1.27;;
61709;SDS011;47633;51.494;5.386;2023-03-04T15:28:21;3.80;;;1.50;;
61709;SDS011;47633;51.494;5.386;2023-03-04T15:30:47;4.95;;;1.33;;
61709;SDS011;47633;51.494;5.386;2023-03-04T15:33:13;4.95;;;1.70;;
61709;SDS011;47633;51.494;5.386;2023-03-04T15:35:39;3.47;;;1.30;;
61709;SDS011;47633;51.494;5.386;2023-03-04T15:38:10;4.70;;;1.45;;
61709;SDS011;47633;51.494;5.386;2023-03-04T15:40:40;4.75;;;1.70;;
61709;SDS011;47633;51.494;5.386;2023-03-04T15:43:07;3.38;;;1.50;;
61709;SDS011;47633;51.494;5.386;2023-03-04T15:45:37;3.30;;;1.42;;
61709;SDS011;47633;51.494;5.386;2023-03-04T15:48:03;4.55;;;1.70;;
61709;SDS011;47633;51.494;5.386;2023-03-04T15:50:42;6.57;;;1.50;;
61709;SDS011;47633;51.494;5.386;2023-03-04T15:53:16;4.70;;;1.50;;
61709;SDS011;47633;51.494;5.386;2023-03-04T15:55:46;3.38;;;1.40;;
61709;SDS011;47633;51.494;5.386;2023-03-04T15:58:11;4.80;;;1.40;;
61709;SDS011;47633;51.494;5.386;2023-03-04T16:00:38;6.68;;;1.40;;
61709;SDS011;47633;51.494;5.386;2023-03-04T16:03:03;6.90;;;1.58;;
61709;SDS011;47633;51.494;5.386;2023-03-04T16:05:28;4.63;;;1.27;;
61709;SDS011;47633;51.494;5.386;2023-03-04T16:07:54;4.20;;;1.50;;
61709;SDS011;47633;51.494;5.386;2023-03-04T16:10:21;7.13;;;1.95;;
61709;SDS011;47633;51.494;5.386;2023-03-04T16:12:50;5.88;;;1.50;;
61709;SDS011;47633;51.494;5.386;2023-03-04T16:15:18;5.88;;;1.40;;
61709;SDS011;47633;51.494;5.386;2023-03-04T16:17:45;9.10;;;1.75;;
61709;SDS011;47633;51.494;5.386;2023-03-04T16:20:11;7.72;;;1.85;;
61709;SDS011;47633;51.494;5.386;2023-03-04T16:22:39;6.35;;;1.42;;
61709;SDS011;47633;51.494;5.386;2023-03-04T16:25:08;5.50;;;1.40;;
61709;SDS011;47633;51.494;5.386;2023-03-04T16:27:36;7.15;;;1.60;;
61709;SDS011;47633;51.494;5.386;2023-03-04T16:30:01;6.32;;;1.65;;
61709;SDS011;47633;51.494;5.386;2023-03-04T16:32:27;8.00;;;1.70;;
61709;SDS011;47633;51.494;5.386;2023-03-04T16:34:52;8.48;;;1.70;;
61709;SDS011;47633;51.494;5.386;2023-03-04T16:37:18;7.90;;;1.70;;
61709;SDS011;47633;51.494;5.386;2023-03-04T16:39:44;5.35;;;1.67;;
61709;SDS011;47633;51.494;5.386;2023-03-04T16:42:15;5.72;;;1.40;;
61709;SDS011;47633;51.494;5.386;2023-03-04T16:44:43;5.45;;;1.42;;
61709;SDS011;47633;51.494;5.386;2023-03-04T16:47:09;7.30;;;1.50;;
61709;SDS011;47633;51.494;5.386;2023-03-04T16:49:34;6.38;;;1.50;;
61709;SDS011;47633;51.494;5.386;2023-03-04T16:52:00;9.65;;;2.17;;
61709;SDS011;47633;51.494;5.386;2023-03-04T16:54:29;5.93;;;1.67;;
61709;SDS011;47633;51.494;5.386;2023-03-04T16:56:57;5.70;;;1.80;;
61709;SDS011;47633;51.494;5.386;2023-03-04T16:59:23;11.73;;;2.28;;
61709;SDS011;47633;51.494;5.386;2023-03-04T17:01:50;7.85;;;2.28;;